Time;durP1;ratioP1;P1;durP2;ratioP2;P2;SDS_P1;SDS_P2;PMS_P1;PMS_P2;Temp;Humidity;BMP_temperature;BMP_pressure;BME280_temperature;BME280_humidity;BME280_pressure;Samples;Min_cycle;Max_cycle;Signal;HPM_P1;HPM_P2
2022/01/08 00:00:25;;;;;;;42.00;10.70;;;;;;;1.84;100.00;97588.53;5073095;28;20050;-55
2022/01/08 00:02:51;;;;;;;32.33;10.70;;;;;;;1.71;100.00;97591.28;5068284;28;20110;-53
2022/01/08 00:05:17;;;;;;;36.97;11.25;;;;;;;1.56;100.00;97588.88;5068200;28;20029;-57
2022/01/08 00:07:42;;;;;;;41.53;11.50;;;;;;;1.55;100.00;97589.75;5077324;28;21893;-53
2022/01/08 00:10:08;;;;;;;34.78;10.52;;;;;;;1.63;100.00;97587.94;5072347;28;20038;-53
2022/01/08 00:12:33;;;;;;;40.53;14.10;;;;;;;1.49;100.00;97587.25;5072668;28;20028;-54
2022/01/08 00:14:58;;;;;;;44.28;17.48;;;;;;;1.38;100.00;97576.25;5070507;28;20023;-56
2022/01/08 00:17:24;;;;;;;39.75;11.13;;;;;;;1.52;100.00;97569.22;5074818;28;20102;-53
2022/01/08 00:19:52;;;;;;;31.95;10.55;;;;;;;1.52;100.00;97564.09;5071419;28;20025;-53
2022/01/08 00:22:19;;;;;;;40.88;11.32;;;;;;;1.35;100.00;97560.00;5075345;28;20088;-54
2022/01/08 00:24:44;;;;;;;36.92;11.07;;;;;;;1.33;100.00;97561.72;5076185;28;20486;-54
2022/01/08 00:27:09;;;;;;;44.88;12.73;;;;;;;1.20;100.00;97555.03;5074671;28;20041;-54
2022/01/08 00:29:35;;;;;;;37.20;10.93;;;;;;;1.29;100.00;97556.66;5075986;28;20971;-54
2022/01/08 00:32:00;;;;;;;33.22;10.82;;;;;;;1.32;100.00;97554.91;5078869;28;20036;-54
2022/01/08 00:34:25;;;;;;;36.63;10.80;;;;;;;1.24;100.00;97564.41;5083900;28;20040;-54
2022/01/08 00:36:51;;;;;;;44.95;11.20;;;;;;;1.26;100.00;97560.09;5078255;28;20501;-55
2022/01/08 00:39:16;;;;;;;33.15;11.02;;;;;;;1.15;100.00;97559.34;5074717;28;20075;-54
2022/01/08 00:41:42;;;;;;;42.55;12.10;;;;;;;1.09;100.00;97555.13;5076693;28;20045;-54
2022/01/08 00:44:07;;;;;;;36.35;11.57;;;;;;;1.13;100.00;97561.09;5058859;28;20048;-55
2022/01/08 00:46:32;;;;;;;37.58;11.35;;;;;;;0.91;100.00;97561.31;5075390;28;20033;-56
2022/01/08 00:48:57;;;;;;;38.28;12.57;;;;;;;0.94;100.00;97556.16;5082368;28;20024;-54
2022/01/08 00:51:23;;;;;;;40.95;12.23;;;;;;;0.83;100.00;97560.53;5076562;28;20044;-55
2022/01/08 00:53:48;;;;;;;43.20;12.77;;;;;;;1.05;100.00;97557.75;5080142;28;20073;-56
2022/01/08 00:56:16;;;;;;;41.60;11.98;;;;;;;1.28;100.00;97545.50;5076109;28;20048;-54
2022/01/08 00:58:42;;;;;;;43.05;12.90;;;;;;;1.12;100.00;97552.56;5076567;28;20055;-53
2022/01/08 01:01:07;;;;;;;37.15;12.73;;;;;;;1.24;100.00;97546.41;5078347;28;20362;-54
2022/01/08 01:03:33;;;;;;;38.38;13.75;;;;;;;1.32;100.00;97544.63;5076852;28;20097;-54
2022/01/08 01:05:59;;;;;;;36.38;11.60;;;;;;;1.28;100.00;97537.81;5082813;28;20028;-56
2022/01/08 01:08:24;;;;;;;41.10;11.95;;;;;;;1.39;100.00;97532.53;5080564;28;20107;-54
2022/01/08 01:10:49;;;;;;;40.10;11.90;;;;;;;1.60;100.00;97528.00;5077858;28;20038;-54
2022/01/08 01:13:15;;;;;;;45.15;12.45;;;;;;;1.66;100.00;97522.81;5083912;28;20024;-57
2022/01/08 01:15:40;;;;;;;40.20;11.43;;;;;;;1.45;100.00;97521.34;5075903;28;20081;-54
2022/01/08 01:18:06;;;;;;;34.38;11.02;;;;;;;1.70;100.00;97517.56;5080375;28;20055;-55
2022/01/08 01:20:31;;;;;;;31.50;10.80;;;;;;;1.52;100.00;97512.69;5076912;28;20716;-55
2022/01/08 01:23:04;;;;;;;31.65;10.95;;;;;;;1.54;100.00;97509.25;5078644;28;20602;-55
2022/01/08 01:25:42;;;;;;;36.10;11.45;;;;;;;1.38;100.00;97499.16;5080266;28;20028;-54
2022/01/08 01:28:23;;;;;;;;;;;;;;;;;;;;;
2022/01/08 01:41:33;;;;;;;38.22;12.43;;;;;;;0.51;100.00;97469.28;5078086;28;20393;-54
2022/01/08 01:47:17;;;;;;;44.55;18.50;;;;;;;0.71;100.00;97460.53;5083008;28;20036;-55
2022/01/08 01:49:18;;;;;;;52.67;21.70;;;;;;;0.61;100.00;97464.03;5070675;28;20693;-53
2022/01/08 01:51:43;;;;;;;41.25;10.68;;;;;;;0.86;100.00;97469.78;5076921;28;20055;-54
2022/01/08 01:54:09;;;;;;;33.33;10.45;;;;;;;0.63;100.00;97457.22;5080574;28;20039;-55
2022/01/08 01:56:35;;;;;;;41.47;16.90;;;;;;;0.55;100.00;97460.69;5074680;28;20208;-56
2022/01/08 01:59:01;;;;;;;43.03;11.60;;;;;;;0.34;100.00;97445.50;5076648;28;20024;-55
2022/01/08 02:01:26;;;;;;;39.00;11.70;;;;;;;0.25;100.00;97454.13;5074983;28;20056;-55
2022/01/08 02:03:53;;;;;;;41.63;10.73;;;;;;;0.53;100.00;97456.44;5071572;28;20658;-55
2022/01/08 02:06:19;;;;;;;36.78;10.52;;;;;;;0.52;100.00;97455.59;5072665;28;20043;-55
2022/01/08 02:08:44;;;;;;;36.28;10.32;;;;;;;0.50;100.00;97446.22;5078393;28;20625;-55
2022/01/08 02:11:09;;;;;;;41.92;11.23;;;;;;;0.35;100.00;97442.06;5075738;28;20033;-55
2022/01/08 02:13:35;;;;;;;33.67;10.23;;;;;;;0.30;100.00;97429.28;5077624;28;20025;-55
2022/01/08 02:16:01;;;;;;;50.83;26.25;;;;;;;0.47;100.00;97431.69;5078383;28;20601;-55
2022/01/08 02:18:28;;;;;;;36.17;11.48;;;;;;;0.58;100.00;97437.53;5079791;28;21097;-56
2022/01/08 02:20:59;;;;;;;29.10;10.18;;;;;;;0.84;100.00;97436.41;5075176;28;20401;-55
2022/01/08 02:23:26;;;;;;;33.83;10.87;;;;;;;0.81;100.00;97436.47;5077212;28;20032;-57
2022/01/08 02:25:51;;;;;;;33.35;9.80;;;;;;;0.81;100.00;97421.06;5082889;28;21163;-55
2022/01/08 02:28:17;;;;;;;36.13;10.55;;;;;;;0.66;100.00;97413.53;5082929;28;20672;-55
2022/01/08 02:30:43;;;;;;;37.95;11.57;;;;;;;0.43;100.00;97416.34;5080177;28;20036;-54
2022/01/08 02:33:10;;;;;;;41.47;13.90;;;;;;;0.27;100.00;97429.31;5076919;28;20024;-53
2022/01/08 02:35:35;;;;;;;41.17;11.60;;;;;;;0.41;100.00;97411.22;5076729;28;20049;-54
2022/01/08 02:38:01;;;;;;;40.33;12.32;;;;;;;0.44;100.00;97411.22;5076415;28;20054;-57
2022/01/08 02:40:27;;;;;;;33.28;9.80;;;;;;;0.29;100.00;97412.19;5072265;28;20066;-55
2022/01/08 02:43:00;;;;;;;36.35;10.13;;;;;;;0.04;100.00;97398.75;5071814;28;20490;-55
2022/01/08 02:45:26;;;;;;;31.75;10.27;;;;;;;0.12;100.00;97389.25;5075284;28;20037;-55
2022/01/08 02:47:55;;;;;;;38.85;11.88;;;;;;;0.24;100.00;97384.88;5079117;28;20043;-55
2022/01/08 02:50:22;;;;;;;41.78;12.85;;;;;;;0.30;100.00;97372.84;5078515;28;20830;-55
2022/01/08 02:52:48;;;;;;;44.15;12.95;;;;;;;0.38;100.00;97370.19;5078364;28;20025;-54
2022/01/08 02:55:15;;;;;;;47.70;17.73;;;;;;;0.46;100.00;97365.84;5074829;28;20076;-54
2022/01/08 02:57:41;;;;;;;42.80;12.30;;;;;;;0.33;100.00;97359.13;5077130;28;20028;-54
2022/01/08 03:00:09;;;;;;;50.45;14.27;;;;;;;0.59;100.00;97371.69;5071244;28;20059;-54
2022/01/08 03:02:39;;;;;;;39.65;11.90;;;;;;;0.52;100.00;97354.66;5069827;28;20084;-55
2022/01/08 03:05:07;;;;;;;37.80;11.20;;;;;;;0.41;100.00;97352.22;5078777;28;20059;-54
2022/01/08 03:07:32;;;;;;;39.33;11.20;;;;;;;0.39;100.00;97346.25;5079317;28;20054;-55
2022/01/08 03:09:58;;;;;;;31.70;10.35;;;;;;;0.36;100.00;97349.69;5081222;28;20023;-55
2022/01/08 03:12:27;;;;;;;34.38;11.38;;;;;;;0.24;100.00;97341.28;5081653;28;20103;-56
2022/01/08 03:14:54;;;;;;;31.60;11.70;;;;;;;0.31;100.00;97335.22;5083744;28;20849;-55
2022/01/08 03:17:19;;;;;;;37.55;11.90;;;;;;;0.38;100.00;97331.72;5086444;28;20043;-54
2022/01/08 03:19:45;;;;;;;36.40;12.05;;;;;;;0.43;100.00;97322.25;5078325;28;20051;-56
2022/01/08 03:22:11;;;;;;;39.50;12.57;;;;;;;0.38;100.00;97311.19;5071413;28;20062;-55
2022/01/08 03:24:36;;;;;;;39.53;11.95;;;;;;;0.23;100.00;97322.47;5077570;28;20036;-57
2022/01/08 03:27:02;;;;;;;41.97;12.00;;;;;;;0.52;100.00;97317.00;5073261;28;20048;-55
2022/01/08 03:29:27;;;;;;;38.45;11.50;;;;;;;0.37;100.00;97312.06;5080350;28;20028;-55
2022/01/08 03:31:54;;;;;;;43.88;14.15;;;;;;;0.23;100.00;97313.94;5078665;28;20036;-56
2022/01/08 03:34:19;;;;;;;34.95;11.93;;;;;;;0.33;100.00;97305.25;5081378;28;20826;-55
2022/01/08 03:36:45;;;;;;;42.38;12.65;;;;;;;0.45;100.00;97301.72;5075028;28;20048;-55
2022/01/08 03:39:10;;;;;;;36.65;12.18;;;;;;;0.48;100.00;97304.22;5074791;28;20102;-54
2022/01/08 03:41:35;;;;;;;37.85;12.02;;;;;;;0.65;100.00;97297.19;5078669;28;20413;-55
2022/01/08 03:44:01;;;;;;;35.88;11.15;;;;;;;0.55;100.00;97296.47;5080549;28;20028;-56
2022/01/08 03:46:29;;;;;;;37.30;11.15;;;;;;;0.52;100.00;97290.50;5079840;28;20040;-56
2022/01/08 03:51:25;;;;;;;35.63;10.27;;;;;;;0.85;100.00;97296.09;5074693;28;20032;-56
2022/01/08 03:53:51;;;;;;;35.55;12.05;;;;;;;0.70;100.00;97289.41;5077785;28;20262;-56
2022/01/08 03:56:16;;;;;;;34.53;10.80;;;;;;;0.80;100.00;97278.16;5073882;28;20123;-55
2022/01/08 03:58:41;;;;;;;37.17;11.23;;;;;;;0.69;100.00;97277.47;5079795;28;20024;-57
2022/01/08 04:01:07;;;;;;;35.53;10.23;;;;;;;0.65;100.00;97280.94;5058500;28;20036;-56
2022/01/08 04:03:32;;;;;;;27.80;10.82;;;;;;;0.93;100.00;97276.28;5074342;28;20585;-57
2022/01/08 04:05:58;;;;;;;51.10;20.02;;;;;;;1.36;100.00;97275.63;5076059;28;20154;-56
2022/01/08 04:08:23;;;;;;;34.40;10.73;;;;;;;1.18;100.00;97276.78;5073172;28;20028;-56
2022/01/08 04:10:48;;;;;;;40.83;12.70;;;;;;;1.15;100.00;97282.78;5077331;28;20028;-56
2022/01/08 04:13:22;;;;;;;41.03;10.57;;;;;;;1.26;100.00;97279.22;5073475;28;20042;-56
2022/01/08 04:15:51;;;;;;;45.15;14.60;;;;;;;1.41;100.00;97280.69;5075397;28;20035;-57
2022/01/08 04:18:16;;;;;;;35.78;10.38;;;;;;;1.07;100.00;97271.78;5075948;28;20031;-56
2022/01/08 04:21:13;;;;;;;34.45;10.70;;;;;;;1.07;100.00;97273.53;5074126;28;20054;-56
2022/01/08 04:23:27;;;;;;;33.03;9.80;;;;;;;1.32;100.00;97268.84;5076303;28;20827;-58
2022/01/08 04:25:53;;;;;;;34.35;12.25;;;;;;;1.24;100.00;97265.56;5078679;28;20035;-56
2022/01/08 04:28:19;;;;;;;33.92;9.60;;;;;;;1.29;100.00;97264.59;5082043;28;20032;-57
2022/01/08 04:30:45;;;;;;;31.38;9.85;;;;;;;1.58;100.00;97268.44;5073434;28;20040;-56
2022/01/08 04:33:10;;;;;;;34.58;13.13;;;;;;;1.39;100.00;97267.03;5076226;28;20040;-57
2022/01/08 04:35:36;;;;;;;34.83;11.57;;;;;;;1.71;100.00;97263.94;5079342;28;20035;-56
2022/01/08 04:38:02;;;;;;;36.67;9.77;;;;;;;1.51;100.00;97259.13;5083653;28;20034;-56
2022/01/08 04:40:27;;;;;;;31.65;9.55;;;;;;;1.54;100.00;97259.03;5074421;28;20433;-57
2022/01/08 04:42:53;;;;;;;55.40;26.85;;;;;;;1.37;100.00;97255.94;5078672;28;20677;-56
2022/01/08 04:45:18;;;;;;;34.05;10.00;;;;;;;1.63;100.00;97260.63;5059320;28;20028;-57
2022/01/08 04:47:44;;;;;;;33.75;10.05;;;;;;;1.43;100.00;97261.78;5075995;28;20028;-53
2022/01/08 04:50:12;;;;;;;37.72;11.95;;;;;;;1.17;100.00;97254.50;5080318;27;20035;-54
2022/01/08 04:52:38;;;;;;;35.05;10.60;;;;;;;1.46;100.00;97255.78;5082145;28;20028;-53
2022/01/08 04:55:03;;;;;;;34.45;9.68;;;;;;;1.34;100.00;97260.25;5080649;28;20042;-53
2022/01/08 04:57:28;;;;;;;31.45;9.38;;;;;;;1.45;100.00;97259.19;5080254;28;20045;-54
2022/01/08 04:59:54;;;;;;;32.60;9.73;;;;;;;1.51;100.00;97254.81;5074755;28;20044;-56
2022/01/08 05:02:19;;;;;;;39.65;9.73;;;;;;;1.58;100.00;97249.56;5074393;28;20068;-55
2022/01/08 05:04:44;;;;;;;31.92;9.55;;;;;;;1.51;100.00;97246.28;5075358;28;20132;-56
2022/01/08 05:07:10;;;;;;;36.60;9.82;;;;;;;1.56;100.00;97233.31;5080794;28;20051;-56
2022/01/08 05:09:35;;;;;;;31.00;9.70;;;;;;;1.41;100.00;97229.28;5093438;27;20056;-58
2022/01/08 05:12:00;;;;;;;34.28;10.10;;;;;;;1.34;100.00;97225.97;5075339;28;20482;-55
2022/01/08 05:14:27;;;;;;;39.25;9.45;;;;;;;1.14;100.00;97228.91;5078181;28;20028;-55
2022/01/08 05:16:58;;;;;;;43.38;10.90;;;;;;;1.22;100.00;97219.31;5075070;28;20043;-55
2022/01/08 05:19:36;;;;;;;32.40;9.38;;;;;;;1.28;100.00;97205.53;5081313;28;20020;-55
2022/01/08 05:22:04;;;;;;;35.83;9.23;;;;;;;0.90;100.00;97213.00;5077628;28;20055;-54
2022/01/08 05:24:30;;;;;;;32.13;9.02;;;;;;;1.47;100.00;97212.06;5079650;28;20031;-56
2022/01/08 05:26:55;;;;;;;39.65;11.38;;;;;;;1.27;100.00;97206.38;5078719;28;20089;-55
2022/01/08 05:29:20;;;;;;;31.60;8.65;;;;;;;1.26;100.00;97194.44;5075822;28;20062;-54
2022/01/08 05:31:48;;;;;;;33.22;11.65;;;;;;;1.17;100.00;97190.28;5076537;28;20071;-56
2022/01/08 05:34:13;;;;;;;29.95;8.65;;;;;;;1.28;100.00;97185.81;5073736;28;20151;-55
2022/01/08 05:36:38;;;;;;;34.72;9.88;;;;;;;1.29;100.00;97189.25;5077403;28;20088;-56
2022/01/08 05:39:04;;;;;;;35.35;10.40;;;;;;;1.30;100.00;97189.19;5079019;28;20426;-54
2022/01/08 05:41:30;;;;;;;35.65;10.65;;;;;;;1.31;100.00;97188.34;5076595;28;20054;-54
2022/01/08 05:43:55;;;;;;;34.53;9.38;;;;;;;1.60;100.00;97176.72;5075736;28;20439;-55
2022/01/08 05:46:20;;;;;;;32.95;9.35;;;;;;;1.59;100.00;97180.16;5077698;28;20044;-55
2022/01/08 05:48:46;;;;;;;35.70;13.10;;;;;;;1.51;100.00;97179.44;5076127;28;20115;-54
2022/01/08 05:51:11;;;;;;;37.65;11.10;;;;;;;1.39;100.00;97185.63;5082581;28;20032;-54
2022/01/08 05:53:36;;;;;;;36.47;9.63;;;;;;;1.27;100.00;97176.44;5079759;28;20130;-55
2022/01/08 05:56:02;;;;;;;30.55;9.38;;;;;;;1.39;100.00;97177.09;5098604;27;20059;-54
2022/01/08 05:58:27;;;;;;;39.22;10.15;;;;;;;1.36;100.00;97175.44;5080227;28;20020;-57
2022/01/08 06:00:53;;;;;;;37.83;9.80;;;;;;;1.43;100.00;97176.16;5081808;28;20044;-54
2022/01/08 06:03:19;;;;;;;45.63;10.00;;;;;;;1.62;100.00;97169.81;5072039;28;20666;-54
2022/01/08 06:05:45;;;;;;;29.35;8.57;;;;;;;1.30;100.00;97173.78;5075469;28;20046;-55
2022/01/08 06:08:10;;;;;;;29.60;8.30;;;;;;;1.43;100.00;97183.88;5073527;28;20020;-54
2022/01/08 06:10:35;;;;;;;50.55;21.67;;;;;;;1.52;100.00;97178.56;5076367;28;20367;-54
2022/01/08 06:13:01;;;;;;;33.33;9.63;;;;;;;1.63;100.00;97174.06;5077164;28;20024;-56
2022/01/08 06:15:26;;;;;;;30.27;11.85;;;;;;;1.50;100.00;97170.88;5078868;28;20032;-54
2022/01/08 06:17:52;;;;;;;31.48;7.45;;;;;;;1.44;100.00;97171.00;5076841;28;20130;-55
2022/01/08 06:20:17;;;;;;;34.50;8.55;;;;;;;1.40;100.00;97173.63;5072379;28;20032;-54
2022/01/08 06:22:42;;;;;;;32.25;8.65;;;;;;;1.44;100.00;97171.00;5076255;28;20027;-56
2022/01/08 06:25:08;;;;;;;44.15;20.63;;;;;;;1.67;100.00;97178.28;5077873;28;20261;-56
2022/01/08 06:27:34;;;;;;;33.45;9.52;;;;;;;1.42;100.00;97174.47;5079658;28;20477;-55
2022/01/08 06:29:59;;;;;;;36.63;10.18;;;;;;;1.66;100.00;97174.00;5073990;28;20032;-54
2022/01/08 06:32:24;;;;;;;31.67;7.65;;;;;;;1.46;100.00;97176.09;5077470;28;20059;-54
2022/01/08 06:34:50;;;;;;;36.50;14.85;;;;;;;1.69;100.00;97176.53;5077598;28;20023;-56
2022/01/08 06:37:15;;;;;;;39.70;16.40;;;;;;;1.53;100.00;97169.97;5074952;28;20452;-55
2022/01/08 06:39:40;;;;;;;27.13;6.93;;;;;;;1.69;100.00;97179.09;5075970;28;20015;-54
2022/01/08 06:42:06;;;;;;;34.67;9.13;;;;;;;1.84;100.00;97175.41;5080471;28;20040;-55
2022/01/08 06:44:31;;;;;;;35.60;12.88;;;;;;;1.61;100.00;97173.25;5075868;28;20028;-55
2022/01/08 06:46:57;;;;;;;36.03;9.05;;;;;;;1.68;100.00;97176.56;5079336;28;20089;-54
2022/01/08 06:49:22;;;;;;;27.95;6.68;;;;;;;1.68;100.00;97179.97;5049886;28;20739;-55
2022/01/08 06:51:48;;;;;;;33.42;7.10;;;;;;;1.75;100.00;97178.16;5073149;28;20071;-55
2022/01/08 06:54:13;;;;;;;34.83;14.88;;;;;;;1.79;100.00;97181.50;5077494;28;20069;-56
2022/01/08 06:56:39;;;;;;;28.15;6.40;;;;;;;1.83;100.00;97173.69;5075067;28;20036;-57
2022/01/08 06:59:04;;;;;;;35.42;15.27;;;;;;;1.90;100.00;97184.72;5074355;28;20644;-55
2022/01/08 07:01:30;;;;;;;28.20;9.55;;;;;;;1.54;100.00;97189.66;5078411;28;20593;-55
2022/01/08 07:03:55;;;;;;;44.72;21.73;;;;;;;1.93;100.00;97194.94;5074409;28;20066;-55
2022/01/08 07:06:21;;;;;;;22.45;5.53;;;;;;;1.84;100.00;97193.41;5077811;28;20043;-55
2022/01/08 07:08:46;;;;;;;30.35;13.30;;;;;;;1.93;100.00;97182.09;5069280;28;20025;-54
2022/01/08 07:11:12;;;;;;;45.53;17.65;;;;;;;1.98;100.00;97195.69;5075760;28;20028;-55
2022/01/08 07:13:37;;;;;;;33.97;13.57;;;;;;;1.91;100.00;97196.69;5075760;28;20394;-55
2022/01/08 07:16:03;;;;;;;44.95;23.23;;;;;;;2.27;100.00;97205.38;5076853;28;20039;-55
2022/01/08 07:18:28;;;;;;;26.13;8.25;;;;;;;2.26;100.00;97202.84;5076550;28;20035;-54
2022/01/08 07:20:54;;;;;;;23.42;5.63;;;;;;;1.77;100.00;97209.81;5076287;28;20042;-56
2022/01/08 07:23:21;;;;;;;43.17;13.25;;;;;;;1.95;100.00;97206.06;5077346;28;20115;-56
2022/01/08 07:25:46;;;;;;;25.42;5.70;;;;;;;1.91;100.00;97201.81;5072899;27;20071;-55
2022/01/08 07:28:11;;;;;;;24.83;5.32;;;;;;;2.08;100.00;97209.22;5074785;28;20050;-55
2022/01/08 07:30:37;;;;;;;45.20;22.65;;;;;;;2.28;100.00;97203.69;5077214;28;20056;-54
2022/01/08 07:33:02;;;;;;;27.83;7.22;;;;;;;2.25;100.00;97207.16;5074010;28;20118;-56
2022/01/08 07:35:27;;;;;;;20.38;5.53;;;;;;;2.01;100.00;97205.91;5071935;28;20107;-55
2022/01/08 07:37:53;;;;;;;24.23;6.30;;;;;;;2.08;100.00;97214.38;5076991;28;20053;-54
2022/01/08 07:40:20;;;;;;;27.55;8.25;;;;;;;2.25;100.00;97219.19;5078275;28;20111;-55
2022/01/08 07:42:46;;;;;;;26.00;5.80;;;;;;;2.22;100.00;97219.22;5078428;28;20027;-56
2022/01/08 07:45:12;;;;;;;27.10;11.13;;;;;;;2.26;100.00;97223.44;5075348;28;20713;-55
2022/01/08 07:47:37;;;;;;;35.45;12.88;;;;;;;1.95;100.00;97221.47;5070732;28;20034;-54
2022/01/08 07:50:06;;;;;;;26.65;7.97;;;;;;;2.26;100.00;97228.56;5076802;28;20020;-54
2022/01/08 07:52:32;;;;;;;26.88;6.15;;;;;;;2.04;100.00;97228.16;5080475;28;20036;-54
2022/01/08 07:54:58;;;;;;;26.23;5.72;;;;;;;2.21;100.00;97235.56;5076249;28;20024;-54
2022/01/08 07:57:23;;;;;;;38.25;14.85;;;;;;;2.58;100.00;97239.94;5079006;28;20035;-56
2022/01/08 07:59:49;;;;;;;46.28;22.08;;;;;;;2.37;100.00;97244.66;5079331;28;20738;-55
2022/01/08 08:02:14;;;;;;;38.95;17.83;;;;;;;2.42;100.00;97247.97;5072858;28;20058;-57
2022/01/08 08:04:39;;;;;;;27.92;12.43;;;;;;;2.27;100.00;97243.16;5081483;28;20031;-56
2022/01/08 08:07:05;;;;;;;39.60;14.07;;;;;;;2.21;100.00;97248.44;5077612;28;20493;-55
2022/01/08 08:09:31;;;;;;;31.23;10.43;;;;;;;1.98;100.00;97252.25;5084295;28;20024;-58
2022/01/08 08:11:56;;;;;;;50.17;25.52;;;;;;;2.36;100.00;97260.97;5079650;28;20070;-55
2022/01/08 08:14:22;;;;;;;42.47;15.52;;;;;;;2.28;100.00;97258.56;5076350;28;20063;-55
2022/01/08 08:16:47;;;;;;;30.25;6.45;;;;;;;2.18;100.00;97257.03;5079742;28;20177;-55
2022/01/08 08:19:12;;;;;;;24.35;6.88;;;;;;;2.31;100.00;97262.78;5077026;28;20455;-54
2022/01/08 08:21:38;;;;;;;25.67;6.53;;;;;;;2.37;100.00;97267.84;5078839;28;20088;-54
2022/01/08 08:24:06;;;;;;;29.73;8.68;;;;;;;2.24;100.00;97263.78;5078420;28;20032;-55
2022/01/08 08:26:34;;;;;;;19.85;5.95;;;;;;;2.39;100.00;97266.06;5078237;28;20040;-55
2022/01/08 08:29:00;;;;;;;27.00;6.60;;;;;;;2.28;100.00;97263.72;5095600;27;20526;-54
2022/01/08 08:31:25;;;;;;;29.95;7.55;;;;;;;2.22;100.00;97270.69;5078834;27;20546;-55
2022/01/08 08:33:51;;;;;;;23.77;6.03;;;;;;;2.35;100.00;97268.72;5077114;28;20024;-55
2022/01/08 08:36:16;;;;;;;33.75;11.95;;;;;;;2.45;100.00;97278.81;5079113;28;20525;-53
2022/01/08 08:38:42;;;;;;;35.58;12.60;;;;;;;2.85;100.00;97272.81;5075005;28;20086;-54
2022/01/08 08:41:08;;;;;;;109.93;25.80;;;;;;;2.91;100.00;97278.72;5076162;27;20876;-56
2022/01/08 08:43:34;;;;;;;136.32;13.68;;;;;;;2.51;100.00;97283.81;5080696;28;20029;-54
2022/01/08 08:45:59;;;;;;;450.80;34.85;;;;;;;3.06;100.00;97299.00;5078519;28;20047;-56
2022/01/08 08:48:24;;;;;;;1014.40;59.05;;;;;;;3.53;100.00;97293.59;5081611;28;20097;-58
2022/01/08 08:50:50;;;;;;;595.53;34.97;;;;;;;3.47;100.00;97308.38;5082172;28;20036;-54
2022/01/08 08:53:15;;;;;;;316.65;44.15;;;;;;;3.86;100.00;97302.28;5076911;28;20040;-55
2022/01/08 08:55:40;;;;;;;701.67;45.20;;;;;;;3.12;100.00;97305.75;5073158;28;20109;-55
2022/01/08 08:58:06;;;;;;;84.55;27.90;;;;;;;3.47;100.00;97316.09;5079176;28;20035;-54
2022/01/08 09:00:31;;;;;;;681.72;39.58;;;;;;;3.11;100.00;97304.91;5079144;28;20040;-57
2022/01/08 09:02:57;;;;;;;110.15;27.52;;;;;;;3.34;100.00;97313.81;5080030;28;20613;-55
2022/01/08 09:05:22;;;;;;;526.55;31.50;;;;;;;3.35;100.00;97320.69;5079240;28;20052;-55
2022/01/08 09:07:48;;;;;;;68.00;16.80;;;;;;;3.95;100.00;97322.66;5075824;28;20027;-56
2022/01/08 09:10:13;;;;;;;33.35;10.48;;;;;;;3.31;100.00;97334.50;5081540;28;20023;-56
2022/01/08 09:12:40;;;;;;;71.43;22.67;;;;;;;4.03;100.00;97335.38;5079814;28;20095;-56
2022/01/08 09:15:08;;;;;;;281.58;43.92;;;;;;;4.53;100.00;97345.25;5073728;28;20031;-55
2022/01/08 09:17:35;;;;;;;57.20;24.42;;;;;;;3.98;100.00;97343.22;5079553;28;20101;-56
2022/01/08 09:20:01;;;;;;;394.45;56.45;;;;;;;5.06;100.00;97360.13;5079116;28;20043;-57
2022/01/08 09:22:27;;;;;;;315.02;19.15;;;;;;;3.66;100.00;97357.75;5077606;28;20041;-55
2022/01/08 09:24:54;;;;;;;619.80;48.13;;;;;;;4.20;100.00;97364.16;5076770;28;20093;-56
2022/01/08 09:27:21;;;;;;;1999.90;117.65;;;;;;;4.81;100.00;97366.81;5075619;28;20043;-55
2022/01/08 09:29:46;;;;;;;803.55;51.00;;;;;;;4.66;100.00;97372.44;5076465;28;20110;-55
2022/01/08 09:32:12;;;;;;;470.15;45.22;;;;;;;4.42;100.00;97382.53;5076180;28;20036;-55
2022/01/08 09:34:37;;;;;;;95.75;42.50;;;;;;;5.96;100.00;97390.16;5071922;28;20067;-57
2022/01/08 09:37:05;;;;;;;407.23;61.88;;;;;;;8.32;100.00;97405.72;5075222;28;20610;-55
2022/01/08 09:39:31;;;;;;;394.83;30.45;;;;;;;4.42;100.00;97407.50;5075494;28;20055;-56
2022/01/08 09:41:56;;;;;;;442.83;58.92;;;;;;;6.78;100.00;97428.88;5074945;28;20044;-55
2022/01/08 09:44:21;;;;;;;379.25;19.88;;;;;;;4.01;100.00;97423.16;5075866;28;20051;-56
2022/01/08 09:46:47;;;;;;;85.93;44.28;;;;;;;7.42;100.00;97426.53;5078895;28;20067;-57
2022/01/08 09:49:12;;;;;;;1834.13;99.00;;;;;;;6.10;100.00;97437.19;5079673;28;20489;-56
2022/01/08 09:51:38;;;;;;;950.20;50.10;;;;;;;5.18;100.00;97433.00;5077979;28;20119;-56
2022/01/08 09:54:03;;;;;;;347.90;36.03;;;;;;;5.73;100.00;97445.19;5079556;28;20573;-56
2022/01/08 09:56:31;;;;;;;351.92;21.67;;;;;;;4.50;100.00;97452.06;5079177;28;20032;-56
2022/01/08 09:58:57;;;;;;;51.70;35.85;;;;;;;7.05;100.00;97458.19;5076748;28;20024;-55
2022/01/08 10:01:24;;;;;;;57.78;29.95;;;;;;;6.46;100.00;97467.09;5073414;28;20036;-54
2022/01/08 10:03:50;;;;;;;39.53;18.00;;;;;;;5.12;100.00;97453.84;5076716;28;20794;-57
2022/01/08 10:06:22;;;;;;;53.08;37.80;;;;;;;6.66;100.00;97463.84;5075048;28;20124;-55
2022/01/08 10:08:49;;;;;;;27.90;15.02;;;;;;;5.10;100.00;97442.72;5093687;27;20275;-55
2022/01/08 10:11:14;;;;;;;54.55;26.00;;;;;;;7.33;100.00;97471.00;5078423;28;20563;-55
2022/01/08 10:13:41;;;;;;;56.58;34.80;;;;;;;9.91;100.00;97476.88;5074808;28;20147;-58
2022/01/08 10:18:59;;;;;;;47.00;31.47;;;;;;;9.41;100.00;97492.13;5071355;28;20047;-55
2022/01/08 10:21:26;;;;;;;37.53;25.63;;;;;;;9.89;100.00;97497.78;5077413;28;20313;-56
2022/01/08 10:23:55;;;;;;;23.15;12.23;;;;;;;6.46;100.00;97477.47;5078787;28;20058;-56
2022/01/08 10:26:24;;;;;;;37.47;26.60;;;;;;;7.99;100.00;97491.03;5077257;28;20071;-56
2022/01/08 10:28:56;;;;;;;31.45;21.23;;;;;;;7.95;100.00;97499.88;5073997;28;20024;-56
2022/01/08 10:31:27;;;;;;;40.88;27.88;;;;;;;8.49;100.00;97504.66;5068748;28;20036;-55
2022/01/08 10:34:05;;;;;;;46.88;34.58;;;;;;;8.91;100.00;97512.50;5072248;28;20667;-55
2022/01/08 10:36:36;;;;;;;25.60;4.90;;;;;;;5.60;100.00;97504.22;5076417;28;20073;-57
2022/01/08 10:39:22;;;;;;;43.85;28.40;;;;;;;6.81;100.00;97524.69;5091913;27;20497;-54
2022/01/08 10:41:50;;;;;;;28.67;13.30;;;;;;;6.67;100.00;97528.59;5093230;27;20740;-55
2022/01/08 10:44:22;;;;;;;47.85;34.22;;;;;;;7.45;100.00;97538.03;5072164;28;20119;-55
2022/01/08 10:46:57;;;;;;;44.67;29.10;;;;;;;8.48;100.00;97546.31;5074013;28;20032;-57
2022/01/08 10:49:36;;;;;;;32.15;20.00;;;;;;;8.63;100.00;97540.47;5078749;28;20023;-55
2022/01/08 10:52:11;;;;;;;50.05;34.33;;;;;;;9.63;100.00;97558.81;5073767;28;20032;-55
2022/01/08 10:54:38;;;;;;;39.35;28.17;;;;;;;9.70;100.00;97560.25;5075809;28;20042;-56
2022/01/08 10:57:08;;;;;;;16.50;5.55;;;;;;;5.35;100.00;97548.06;5073170;28;20028;-56
2022/01/08 10:59:36;;;;;;;39.67;20.92;;;;;;;5.54;100.00;97551.81;5075441;28;20020;-57
2022/01/08 11:02:05;;;;;;;32.42;19.30;;;;;;;6.89;100.00;97567.63;5071439;28;20040;-55
2022/01/08 11:04:33;;;;;;;46.28;30.08;;;;;;;8.28;100.00;97586.88;5070257;28;20029;-55
2022/01/08 11:07:03;;;;;;;27.23;12.98;;;;;;;5.27;100.00;97570.69;5075447;28;20037;-55
2022/01/08 11:09:29;;;;;;;39.95;25.67;;;;;;;7.03;100.00;97581.84;5075357;28;20052;-57
2022/01/08 11:11:57;;;;;;;24.10;9.98;;;;;;;5.27;100.00;97570.69;5071222;28;20036;-56
2022/01/08 11:17:12;;;;;;;29.45;10.93;;;;;;;5.27;100.00;97581.03;5074064;28;20089;-56
2022/01/08 11:19:42;;;;;;;34.28;19.15;;;;;;;5.41;100.00;97584.94;5073997;28;20085;-59
2022/01/08 11:22:11;;;;;;;31.65;17.35;;;;;;;5.88;100.00;97592.28;5076546;28;20751;-56
2022/01/08 11:24:44;;;;;;;24.00;9.05;;;;;;;4.49;100.00;97591.56;5094145;27;20036;-58
2022/01/08 11:27:11;;;;;;;;;;;;;;;6.44;100.00;97603.63;5075495;28;20762;-57
2022/01/08 11:29:38;;;;;;;98.57;35.03;;;;;;;6.82;100.00;97604.13;5074308;28;19919;-57
2022/01/08 11:32:05;;;;;;;41.33;25.33;;;;;;;6.72;100.00;97607.03;5070122;28;20504;-56
2022/01/08 11:34:31;;;;;;;33.13;16.95;;;;;;;6.42;100.00;97605.41;5072067;28;20078;-55
2022/01/08 11:36:57;;;;;;;30.40;13.95;;;;;;;5.40;100.00;97603.06;5070894;28;20034;-58